createdAt,value
2018-08-22T00:00:45.110Z,19.80
2018-08-22T00:03:13.583Z,19.90
2018-08-22T00:05:41.963Z,19.90
2018-08-22T00:08:10.278Z,20.00
2018-08-22T00:10:38.590Z,20.00
2018-08-22T00:13:07.013Z,20.00
2018-08-22T00:15:35.336Z,20.00
2018-08-22T00:18:03.637Z,20.00
2018-08-22T00:20:31.980Z,20.10
2018-08-22T00:23:00.332Z,20.10
2018-08-22T00:25:28.675Z,20.20
2018-08-22T00:27:57.067Z,20.20
2018-08-22T00:30:25.326Z,20.20
2018-08-22T00:32:53.589Z,20.20
2018-08-22T00:35:22.005Z,20.20
2018-08-22T00:37:50.372Z,20.20
2018-08-22T00:40:18.707Z,20.30
2018-08-22T00:42:47.032Z,20.30
2018-08-22T00:45:15.458Z,20.30
2018-08-22T00:47:43.911Z,20.30
2018-08-22T00:50:12.215Z,20.30
2018-08-22T00:52:40.542Z,20.20
2018-08-22T00:55:09.148Z,20.20
2018-08-22T00:57:37.473Z,20.20
2018-08-22T01:00:05.773Z,20.20
2018-08-22T01:02:34.085Z,20.20
2018-08-22T01:05:03.471Z,20.20
2018-08-22T01:07:31.801Z,20.20
2018-08-22T01:10:00.133Z,20.20
2018-08-22T01:12:28.470Z,20.20
2018-08-22T01:14:56.951Z,20.10
2018-08-22T01:17:25.280Z,20.10
2018-08-22T01:19:53.699Z,20.00
2018-08-22T01:22:22.007Z,20.00
2018-08-22T01:24:51.567Z,19.90
2018-08-22T01:27:22.834Z,19.90
2018-08-22T01:29:54.301Z,19.80
2018-08-22T01:32:23.175Z,19.80
2018-08-22T01:34:52.504Z,19.70
2018-08-22T01:37:20.903Z,19.70
2018-08-22T01:39:49.355Z,19.60
2018-08-22T01:42:18.283Z,19.50
2018-08-22T01:44:46.968Z,19.50
2018-08-22T01:47:15.666Z,19.50
2018-08-22T01:49:44.053Z,19.50
2018-08-22T01:52:12.374Z,19.40
2018-08-22T01:54:41.827Z,19.40
2018-08-22T01:57:10.083Z,19.40
2018-08-22T01:59:38.450Z,19.40
2018-08-22T02:02:06.767Z,19.40
2018-08-22T02:04:35.153Z,19.40
2018-08-22T02:07:03.490Z,19.30
2018-08-22T02:09:31.778Z,19.30
2018-08-22T02:12:00.080Z,19.30
2018-08-22T02:14:28.426Z,19.30
2018-08-22T02:16:56.748Z,19.30
2018-08-22T02:19:25.033Z,19.30
2018-08-22T02:21:53.310Z,19.30
2018-08-22T02:24:22.819Z,19.30
2018-08-22T02:26:51.107Z,19.20
2018-08-22T02:29:19.426Z,19.20
2018-08-22T02:31:47.756Z,19.20
2018-08-22T02:34:18.150Z,19.20
2018-08-22T02:36:46.520Z,19.10
2018-08-22T02:39:14.870Z,19.10
2018-08-22T02:41:43.203Z,19.10
2018-08-22T02:44:12.690Z,19.10
2018-08-22T02:46:41.014Z,19.10
2018-08-22T02:49:13.438Z,19.00
2018-08-22T02:51:41.738Z,19.00
2018-08-22T02:54:10.173Z,19.00
2018-08-22T02:56:38.444Z,18.90
2018-08-22T02:59:06.724Z,18.90
2018-08-22T03:01:35.061Z,18.90
2018-08-22T03:04:04.418Z,19.00
2018-08-22T03:09:32.677Z,19.00
2018-08-22T03:12:00.988Z,19.00
2018-08-22T03:14:29.429Z,18.90
2018-08-22T03:16:57.699Z,18.90
2018-08-22T03:19:26.005Z,19.00
2018-08-22T03:21:54.353Z,19.00
2018-08-22T03:24:22.839Z,19.00
2018-08-22T03:26:51.272Z,19.10
2018-08-22T03:29:19.615Z,19.10
2018-08-22T03:31:47.939Z,19.10
2018-08-22T03:34:16.262Z,19.00
2018-08-22T03:36:44.559Z,19.00
2018-08-22T03:39:12.873Z,19.00
2018-08-22T03:41:41.171Z,19.00
2018-08-22T03:44:09.617Z,18.90
2018-08-22T03:46:37.896Z,18.90
2018-08-22T03:49:06.279Z,18.90
2018-08-22T03:51:34.649Z,18.90
2018-08-22T03:54:03.028Z,18.90
2018-08-22T03:56:31.334Z,18.90
2018-08-22T03:58:59.649Z,18.80
2018-08-22T04:01:27.965Z,18.80
2018-08-22T04:03:56.399Z,18.80
2018-08-22T04:06:24.794Z,18.70
2018-08-22T04:08:53.127Z,18.70
2018-08-22T04:11:21.375Z,18.80
2018-08-22T04:13:49.787Z,18.80
2018-08-22T04:16:18.053Z,18.80
2018-08-22T04:18:46.377Z,18.80
2018-08-22T04:21:14.745Z,18.70
2018-08-22T04:23:43.216Z,18.70
2018-08-22T04:26:11.724Z,18.60
2018-08-22T04:28:40.031Z,18.60
2018-08-22T04:31:08.444Z,18.60
2018-08-22T04:33:36.950Z,18.70
2018-08-22T04:36:05.393Z,18.70
2018-08-22T04:38:33.651Z,18.70
2018-08-22T04:41:02.197Z,18.60
2018-08-22T04:46:32.960Z,18.60
2018-08-22T04:49:01.298Z,18.50
2018-08-22T04:51:29.541Z,18.50
2018-08-22T04:53:57.930Z,18.50
2018-08-22T04:56:26.191Z,18.50
2018-08-22T04:58:54.519Z,18.50
2018-08-22T05:01:22.904Z,18.40
2018-08-22T05:03:51.285Z,18.40
2018-08-22T05:06:19.663Z,18.50
2018-08-22T05:08:47.966Z,18.50
2018-08-22T05:11:16.337Z,18.50
2018-08-22T05:13:44.764Z,18.50
2018-08-22T05:16:13.123Z,18.50
2018-08-22T05:18:41.775Z,18.50
2018-08-22T05:21:10.065Z,18.50
2018-08-22T05:23:38.457Z,18.50
2018-08-22T05:26:06.698Z,18.60
2018-08-22T05:28:34.973Z,18.60
2018-08-22T05:31:03.253Z,18.60
2018-08-22T05:33:31.587Z,18.70
2018-08-22T05:35:59.924Z,18.70
2018-08-22T05:38:28.348Z,18.80
2018-08-22T05:40:56.644Z,18.80
2018-08-22T05:43:25.130Z,18.80
2018-08-22T05:45:53.450Z,18.90
2018-08-22T05:48:21.854Z,18.80
2018-08-22T05:50:56.903Z,18.90
2018-08-22T05:53:25.421Z,18.90
2018-08-22T05:55:53.743Z,19.00
2018-08-22T05:58:21.970Z,19.00
2018-08-22T06:00:50.245Z,19.10
2018-08-22T06:03:18.689Z,19.20
2018-08-22T06:05:47.054Z,19.20
2018-08-22T06:08:15.337Z,19.30
2018-08-22T06:10:43.697Z,19.50
2018-08-22T06:13:12.194Z,19.50
2018-08-22T06:15:40.536Z,19.60
2018-08-22T06:18:08.828Z,19.70
2018-08-22T06:20:37.180Z,19.80
2018-08-22T06:23:05.776Z,19.80
2018-08-22T06:25:34.155Z,19.80
2018-08-22T06:28:02.423Z,19.90
2018-08-22T06:30:30.698Z,19.90
2018-08-22T06:32:59.101Z,20.00
2018-08-22T06:35:27.445Z,20.00
2018-08-22T06:37:55.723Z,20.10
2018-08-22T06:40:24.108Z,20.20
2018-08-22T06:42:52.396Z,20.20
2018-08-22T06:45:20.702Z,20.30
2018-08-22T06:47:49.213Z,20.40
2018-08-22T06:50:17.725Z,20.50
2018-08-22T06:52:46.078Z,20.50
2018-08-22T06:55:14.571Z,20.60
2018-08-22T06:57:42.929Z,20.70
2018-08-22T07:00:11.272Z,20.70
2018-08-22T07:02:39.663Z,20.80
2018-08-22T07:05:08.233Z,20.80
2018-08-22T07:07:36.570Z,20.90
2018-08-22T07:10:05.215Z,20.90
2018-08-22T07:12:33.551Z,20.90
2018-08-22T07:15:02.036Z,21.00
2018-08-22T07:17:30.349Z,21.00
2018-08-22T07:19:58.677Z,21.10
2018-08-22T07:22:26.925Z,21.10
2018-08-22T07:24:55.314Z,21.20
2018-08-22T07:27:23.794Z,21.30
2018-08-22T07:29:52.143Z,21.30
2018-08-22T07:32:20.778Z,21.30
2018-08-22T07:34:49.221Z,21.30
2018-08-22T07:37:17.526Z,21.30
2018-08-22T07:39:45.868Z,21.20
2018-08-22T07:42:14.203Z,21.30
2018-08-22T07:44:42.565Z,21.30
2018-08-22T07:47:10.919Z,21.30
2018-08-22T07:49:39.119Z,21.40
2018-08-22T07:52:07.445Z,21.40
2018-08-22T07:54:46.086Z,21.40
2018-08-22T07:57:16.063Z,21.40
2018-08-22T07:59:44.374Z,21.50
2018-08-22T08:02:12.740Z,21.60
2018-08-22T08:04:41.055Z,21.70
2018-08-22T08:07:09.366Z,21.70
2018-08-22T08:09:37.689Z,21.80
2018-08-22T08:12:05.982Z,21.80
2018-08-22T08:14:34.305Z,21.90
2018-08-22T08:17:02.612Z,21.90
2018-08-22T08:19:30.876Z,21.90
2018-08-22T08:21:59.186Z,21.90
2018-08-22T08:24:27.557Z,22.00
2018-08-22T08:26:55.844Z,22.00
2018-08-22T08:29:24.166Z,22.00
2018-08-22T08:31:52.490Z,22.10
2018-08-22T08:34:20.802Z,22.10
2018-08-22T08:36:49.141Z,22.30
2018-08-22T08:39:17.523Z,22.30
2018-08-22T08:41:45.909Z,22.20
2018-08-22T08:44:14.195Z,22.30
2018-08-22T08:46:42.486Z,22.30
2018-08-22T08:49:10.865Z,22.30
2018-08-22T08:51:50.424Z,22.50
2018-08-22T08:54:18.817Z,22.60
2018-08-22T08:56:48.332Z,22.70
2018-08-22T08:59:16.646Z,22.90
2018-08-22T09:01:44.933Z,23.00
2018-08-22T09:04:13.321Z,23.20
2018-08-22T09:06:41.652Z,23.30
2018-08-22T09:09:10.361Z,23.30
2018-08-22T09:11:43.665Z,23.40
2018-08-22T09:14:12.250Z,23.50
2018-08-22T09:16:40.481Z,23.50
2018-08-22T09:19:08.841Z,23.40
2018-08-22T09:21:37.211Z,23.40
2018-08-22T09:24:06.049Z,23.40
2018-08-22T09:26:34.350Z,23.40
2018-08-22T09:29:02.707Z,23.50
2018-08-22T09:31:31.008Z,23.50
2018-08-22T09:33:59.347Z,23.30
2018-08-22T09:36:27.644Z,23.30
2018-08-22T09:38:55.908Z,23.20
2018-08-22T09:41:24.182Z,23.20
2018-08-22T09:43:52.701Z,23.20
2018-08-22T09:46:20.995Z,23.30
2018-08-22T09:48:49.262Z,23.40
2018-08-22T09:51:17.568Z,23.60
2018-08-22T09:53:45.983Z,23.70
2018-08-22T09:56:14.330Z,23.80
2018-08-22T09:58:43.147Z,23.90
2018-08-22T10:01:17.182Z,24.00
2018-08-22T10:03:55.921Z,24.00
2018-08-22T10:06:29.813Z,24.00
2018-08-22T10:09:00.242Z,24.00
2018-08-22T10:11:28.611Z,24.10
2018-08-22T10:13:57.680Z,24.20
2018-08-22T10:16:27.452Z,24.10
2018-08-22T10:18:56.084Z,24.10
2018-08-22T10:21:25.256Z,24.10
2018-08-22T10:23:53.769Z,24.10
2018-08-22T10:26:22.250Z,24.00
2018-08-22T10:28:50.581Z,23.90
2018-08-22T10:31:18.883Z,23.90
2018-08-22T10:33:47.208Z,24.00
2018-08-22T10:36:15.869Z,23.90
2018-08-22T10:38:44.149Z,23.90
2018-08-22T10:41:12.523Z,24.00
2018-08-22T10:43:42.112Z,23.90
2018-08-22T10:46:10.710Z,23.90
2018-08-22T10:48:38.993Z,23.90
2018-08-22T10:51:08.048Z,23.90
2018-08-22T10:53:36.648Z,24.00
2018-08-22T10:56:04.979Z,23.90
2018-08-22T10:58:33.306Z,24.00
2018-08-22T11:01:02.475Z,24.00
2018-08-22T11:03:31.095Z,24.10
2018-08-22T11:05:59.523Z,24.20
2018-08-22T11:08:27.790Z,24.20
2018-08-22T11:10:56.131Z,24.30
2018-08-22T11:13:24.546Z,24.40
2018-08-22T11:15:52.955Z,24.30
2018-08-22T11:18:21.258Z,24.30
2018-08-22T11:20:50.535Z,24.30
2018-08-22T11:23:31.116Z,24.30
2018-08-22T11:26:11.445Z,24.30
2018-08-22T11:28:51.181Z,24.40
2018-08-22T11:31:31.267Z,24.40
2018-08-22T11:34:11.075Z,24.50
2018-08-22T11:36:38.340Z,24.60
2018-08-22T11:39:07.920Z,24.70
2018-08-22T11:41:36.201Z,24.70
2018-08-22T11:44:04.667Z,24.70
2018-08-22T11:46:33.033Z,24.70
2018-08-22T11:49:01.309Z,24.70
2018-08-22T11:51:29.656Z,24.70
2018-08-22T11:53:58.052Z,24.70
2018-08-22T11:56:26.408Z,24.70
2018-08-22T11:58:54.695Z,24.70
2018-08-22T12:01:23.001Z,24.90
2018-08-22T12:03:51.459Z,24.90
2018-08-22T12:06:19.757Z,25.10
2018-08-22T12:08:48.191Z,25.00
2018-08-22T12:11:16.596Z,25.10
2018-08-22T12:13:45.052Z,25.10
2018-08-22T12:16:13.455Z,25.00
2018-08-22T12:18:41.676Z,24.90
2018-08-22T12:21:10.184Z,25.00
2018-08-22T12:23:38.618Z,25.00
2018-08-22T12:26:07.076Z,25.10
2018-08-22T12:28:35.366Z,25.20
2018-08-22T12:31:03.692Z,25.30
2018-08-22T12:33:32.032Z,25.40
2018-08-22T12:36:00.339Z,25.40
2018-08-22T12:38:28.701Z,25.40
2018-08-22T12:40:57.219Z,25.40
2018-08-22T12:43:25.540Z,25.30
2018-08-22T12:45:53.902Z,25.20
2018-08-22T12:48:22.202Z,25.30
2018-08-22T12:50:50.655Z,25.40
2018-08-22T12:53:19.145Z,25.50
2018-08-22T12:55:47.423Z,25.50
2018-08-22T12:58:15.756Z,25.50
2018-08-22T13:00:44.126Z,25.40
2018-08-22T13:03:12.547Z,25.30
2018-08-22T13:05:40.869Z,25.30
2018-08-22T13:08:09.239Z,25.20
2018-08-22T13:10:37.514Z,25.30
2018-08-22T13:13:06.255Z,25.40
2018-08-22T13:15:34.573Z,25.40
2018-08-22T13:18:02.895Z,25.40
2018-08-22T13:20:31.219Z,25.40
2018-08-22T13:22:59.609Z,25.40
2018-08-22T13:25:27.930Z,25.40
2018-08-22T13:27:56.310Z,25.40
2018-08-22T13:30:24.748Z,25.50
2018-08-22T13:32:54.118Z,25.50
2018-08-22T13:35:22.503Z,25.70
2018-08-22T13:37:50.855Z,25.80
2018-08-22T13:40:19.125Z,25.90
2018-08-22T13:42:47.443Z,25.90
2018-08-22T13:45:15.813Z,25.90
2018-08-22T13:47:44.124Z,25.80
2018-08-22T13:50:12.483Z,25.70
2018-08-22T13:52:40.827Z,25.70
2018-08-22T13:55:09.187Z,25.70
2018-08-22T13:57:37.507Z,25.80
2018-08-22T14:00:06.280Z,25.80
2018-08-22T14:02:34.567Z,25.80
2018-08-22T14:05:02.866Z,25.80
2018-08-22T14:07:31.160Z,25.80
2018-08-22T14:09:59.456Z,25.80
2018-08-22T14:12:27.742Z,25.90
2018-08-22T14:14:56.219Z,25.80
2018-08-22T14:17:24.444Z,25.70
2018-08-22T14:19:52.719Z,25.70
2018-08-22T14:22:21.010Z,25.70
2018-08-22T14:24:49.475Z,25.60
2018-08-22T14:27:17.801Z,25.60
2018-08-22T14:29:46.054Z,25.50
2018-08-22T14:32:14.395Z,25.40
2018-08-22T14:34:42.800Z,25.50
2018-08-22T14:37:11.076Z,25.70
2018-08-22T14:39:39.388Z,25.70
2018-08-22T14:42:07.696Z,25.70
2018-08-22T14:44:36.059Z,25.70
2018-08-22T14:47:04.392Z,25.70
2018-08-22T14:49:32.697Z,25.80
2018-08-22T14:52:01.003Z,25.90
2018-08-22T14:54:29.479Z,25.90
2018-08-22T14:56:58.773Z,25.80
2018-08-22T14:59:27.093Z,25.60
2018-08-22T15:01:55.395Z,25.50
2018-08-22T15:04:23.740Z,25.50
2018-08-22T15:06:51.993Z,25.60
2018-08-22T15:09:20.958Z,25.70
2018-08-22T15:11:49.195Z,25.60
2018-08-22T15:14:17.685Z,25.40
2018-08-22T15:16:45.915Z,25.20
2018-08-22T15:19:14.319Z,25.10
2018-08-22T15:21:42.587Z,25.00
2018-08-22T15:24:10.976Z,25.00
2018-08-22T15:26:39.257Z,25.00
2018-08-22T15:29:07.553Z,25.00
2018-08-22T15:31:35.818Z,25.00
2018-08-22T15:34:04.410Z,25.00
2018-08-22T15:36:34.543Z,24.90
2018-08-22T15:39:03.018Z,24.90
2018-08-22T15:41:31.398Z,24.80
2018-08-22T15:43:59.790Z,24.90
2018-08-22T15:46:28.072Z,24.80
2018-08-22T15:48:56.367Z,24.80
2018-08-22T15:51:24.676Z,24.70
2018-08-22T15:54:23.987Z,24.70
2018-08-22T15:56:52.255Z,24.70
2018-08-22T15:59:20.512Z,24.70
2018-08-22T16:01:48.793Z,24.60
2018-08-22T16:04:17.247Z,24.50
2018-08-22T16:06:48.152Z,24.50
2018-08-22T16:09:20.669Z,24.40
2018-08-22T16:11:48.979Z,24.30
2018-08-22T16:14:17.448Z,24.30
2018-08-22T16:16:45.698Z,24.20
2018-08-22T16:19:13.979Z,24.10
2018-08-22T16:21:42.294Z,24.10
2018-08-22T16:24:10.789Z,24.10
2018-08-22T16:26:39.111Z,24.10
2018-08-22T16:29:07.396Z,24.10
2018-08-22T16:31:39.964Z,24.00
2018-08-22T16:34:10.728Z,23.90
2018-08-22T16:36:39.489Z,23.90
2018-08-22T16:39:08.544Z,23.80
2018-08-22T16:41:36.994Z,23.80
2018-08-22T16:44:05.343Z,23.70
2018-08-22T16:46:33.676Z,23.70
2018-08-22T16:49:01.979Z,23.70
2018-08-22T16:51:30.244Z,23.60
2018-08-22T16:54:04.092Z,23.60
2018-08-22T16:56:33.596Z,23.60
2018-08-22T16:59:07.214Z,23.50
2018-08-22T17:01:35.991Z,23.50
2018-08-22T17:04:04.556Z,23.40
2018-08-22T17:06:32.901Z,23.40
2018-08-22T17:09:01.163Z,23.30
2018-08-22T17:11:29.483Z,23.30
2018-08-22T17:13:57.932Z,23.30
2018-08-22T17:16:26.595Z,23.30
2018-08-22T17:18:54.966Z,23.20
2018-08-22T17:21:23.275Z,23.20
2018-08-22T17:23:51.923Z,23.10
2018-08-22T17:26:21.188Z,23.10
2018-08-22T17:28:52.026Z,23.10
2018-08-22T17:31:21.214Z,23.00
2018-08-22T17:33:51.267Z,22.90
2018-08-22T17:36:19.497Z,22.90
2018-08-22T17:38:51.269Z,22.90
2018-08-22T17:41:23.145Z,22.80
2018-08-22T17:44:11.760Z,22.80
2018-08-22T17:46:43.308Z,22.80
2018-08-22T17:49:11.576Z,22.70
2018-08-22T17:51:54.823Z,22.70
2018-08-22T17:54:23.290Z,22.60
2018-08-22T17:57:01.650Z,22.50
2018-08-22T17:59:29.950Z,22.50
2018-08-22T18:01:59.109Z,22.40
2018-08-22T18:04:28.697Z,22.30
2018-08-22T18:06:57.002Z,22.20
2018-08-22T18:09:25.304Z,22.20
2018-08-22T18:11:53.629Z,22.10
2018-08-22T18:14:22.107Z,22.10
2018-08-22T18:16:52.141Z,22.10
2018-08-22T18:19:20.485Z,22.00
2018-08-22T18:21:48.698Z,22.00
2018-08-22T18:24:17.060Z,22.00
2018-08-22T18:26:46.876Z,21.90
2018-08-22T18:29:15.158Z,21.90
2018-08-22T18:31:43.832Z,21.80
2018-08-22T18:34:12.192Z,21.80
2018-08-22T18:36:40.707Z,21.80
2018-08-22T18:39:11.048Z,21.80
2018-08-22T18:41:39.339Z,21.80
2018-08-22T18:44:07.726Z,21.70
2018-08-22T18:46:42.692Z,21.70
2018-08-22T18:49:11.003Z,21.70
2018-08-22T18:51:39.230Z,21.60
2018-08-22T18:54:07.623Z,21.60
2018-08-22T18:56:36.082Z,21.60
2018-08-22T18:59:15.754Z,21.60
2018-08-22T19:01:44.049Z,21.60
2018-08-22T19:04:13.464Z,21.50
2018-08-22T19:06:41.769Z,21.50
2018-08-22T19:09:10.031Z,21.50
2018-08-22T19:11:38.349Z,21.50
2018-08-22T19:14:06.685Z,21.50
2018-08-22T19:16:35.008Z,21.40
2018-08-22T19:19:03.315Z,21.40
2018-08-22T19:21:31.601Z,21.40
2018-08-22T19:24:03.967Z,21.40
2018-08-22T19:26:32.603Z,21.40
2018-08-22T19:29:02.727Z,21.30
2018-08-22T19:31:31.056Z,21.30
2018-08-22T19:33:59.486Z,21.30
2018-08-22T19:36:27.761Z,21.30
2018-08-22T19:38:56.104Z,21.30
2018-08-22T19:41:27.683Z,21.20
2018-08-22T19:43:56.017Z,21.20
2018-08-22T19:46:24.358Z,21.20
2018-08-22T19:48:52.739Z,21.20
2018-08-22T19:51:21.152Z,21.10
2018-08-22T19:54:02.349Z,21.10
2018-08-22T19:56:30.979Z,21.10
2018-08-22T19:58:59.599Z,21.00
2018-08-22T20:01:32.360Z,21.00
2018-08-22T20:04:00.652Z,21.00
2018-08-22T20:06:28.946Z,21.00
2018-08-22T20:08:58.324Z,20.90
2018-08-22T20:11:27.155Z,20.90
2018-08-22T20:13:59.815Z,20.90
2018-08-22T20:16:28.131Z,20.90
2018-08-22T20:18:57.655Z,20.80
2018-08-22T20:21:33.264Z,20.90
2018-08-22T20:24:02.564Z,20.80
2018-08-22T20:26:31.305Z,20.80
2018-08-22T20:29:00.746Z,20.80
2018-08-22T20:31:28.991Z,20.80
2018-08-22T20:34:05.804Z,20.80
2018-08-22T20:36:34.151Z,20.80
2018-08-22T20:39:07.582Z,20.80
2018-08-22T20:41:36.454Z,20.80
2018-08-22T20:44:09.770Z,20.80
2018-08-22T20:46:38.255Z,20.70
2018-08-22T20:49:06.563Z,20.70
2018-08-22T20:51:35.007Z,20.60
2018-08-22T20:54:07.721Z,20.60
2018-08-22T20:56:37.486Z,20.60
2018-08-22T20:59:05.777Z,20.50
2018-08-22T21:01:34.089Z,20.50
2018-08-22T21:04:02.395Z,20.50
2018-08-22T21:06:30.697Z,20.50
2018-08-22T21:08:58.959Z,20.40
2018-08-22T21:11:27.327Z,20.40
2018-08-22T21:13:55.948Z,20.40
2018-08-22T21:16:24.187Z,20.40
2018-08-22T21:18:52.464Z,20.30
2018-08-22T21:21:23.666Z,20.30
2018-08-22T21:23:52.122Z,20.30
2018-08-22T21:26:42.514Z,20.30
2018-08-22T21:29:10.784Z,20.30
2018-08-22T21:31:39.097Z,20.30
2018-08-22T21:34:13.105Z,20.20
2018-08-22T21:36:43.476Z,20.20
2018-08-22T21:39:17.124Z,20.20
2018-08-22T21:41:46.318Z,20.20
2018-08-22T21:44:21.929Z,20.10
2018-08-22T21:46:58.613Z,20.10
2018-08-22T21:49:26.961Z,20.00
2018-08-22T21:51:57.483Z,20.00
2018-08-22T21:54:26.171Z,19.90
2018-08-22T21:56:54.596Z,19.90
2018-08-22T21:59:23.015Z,19.90
2018-08-22T22:01:56.729Z,19.80
2018-08-22T22:04:31.360Z,19.90
2018-08-22T22:06:59.723Z,19.90
2018-08-22T22:09:28.040Z,19.80
2018-08-22T22:11:59.681Z,19.80
2018-08-22T22:14:31.024Z,19.80
2018-08-22T22:17:00.246Z,19.80
2018-08-22T22:19:30.574Z,19.80
2018-08-22T22:21:59.064Z,19.70
2018-08-22T22:24:27.542Z,19.70
2018-08-22T22:26:56.008Z,19.60
2018-08-22T22:29:25.309Z,19.60
2018-08-22T22:31:53.663Z,19.50
2018-08-22T22:34:23.210Z,19.40
2018-08-22T22:36:51.521Z,19.30
2018-08-22T22:39:35.378Z,19.30
2018-08-22T22:42:12.762Z,19.20
2018-08-22T22:44:44.443Z,19.10
2018-08-22T22:47:18.069Z,19.10
2018-08-22T22:49:46.382Z,19.10
2018-08-22T22:52:25.572Z,19.10
2018-08-22T22:54:55.672Z,19.10
2018-08-22T22:57:24.475Z,19.10
2018-08-22T22:59:53.204Z,19.10
2018-08-22T23:02:23.644Z,19.00
2018-08-22T23:04:52.981Z,18.90
2018-08-22T23:07:23.218Z,18.90
2018-08-22T23:09:54.507Z,18.80
2018-08-22T23:12:28.293Z,18.70
2018-08-22T23:14:57.147Z,18.70
2018-08-22T23:17:26.119Z,18.60
2018-08-22T23:20:19.408Z,18.60
2018-08-22T23:22:47.677Z,18.60
2018-08-22T23:25:15.971Z,18.60
2018-08-22T23:27:44.238Z,18.50
2018-08-22T23:33:12.465Z,18.50
2018-08-22T23:35:40.774Z,18.50
2018-08-22T23:38:16.168Z,18.50
2018-08-22T23:40:45.877Z,18.40
2018-08-22T23:43:14.176Z,18.40
2018-08-22T23:45:47.722Z,18.50
2018-08-22T23:48:20.224Z,18.50
2018-08-22T23:50:55.220Z,18.50
2018-08-22T23:53:30.208Z,18.40
2018-08-22T23:56:27.970Z,18.40
2018-08-22T23:58:56.921Z,18.40
